METAR

Aeronautical MET Report METAR

METAR description (Slovak)

30.11.2020 - 13:30 UTC

METAR LZIB 301330Z 13004KT 9999 FEW030 04/M02 Q1026 NOSIG=
METAR LZKZ 301330Z VRB01KT 9999 FEW007 00/M02 Q1026 NOSIG=
METAR LZPP 301330Z 22004KT 170V240 9999 SCT042 BKN060 04/M04 Q1026=
METAR LZSL 301330Z VRB01KT 9999 SCT048 01/M03 Q1026=
METAR LZTT 301330Z 25005KT 9999 FEW020 BKN036 M02/M06 Q1023 NOSIG=
METAR LZZI 301330Z VRB01KT 9999 OVC059 02/M05 Q1025=

30.11.2020 - 13:00 UTC

METAR LZIB 301300Z 12004KT 9999 FEW030 05/M02 Q1026 NOSIG=
METAR LZKZ 301300Z 12003KT CAVOK 00/M02 Q1026 NOSIG=
METAR LZPP 301300Z 19003KT 150V230 9999 FEW046 BKN060 04/M05 Q1026=
METAR LZSL 301300Z VRB01KT 9999 FEW043 01/M02 Q1026=
METAR LZTT 301300Z 25006KT 9999 FEW020 BKN036 M02/M07 Q1023 NOSIG=
METAR LZZI 301300Z VRB01KT 9999 FEW043 OVC055 02/M06 Q1025=

30.11.2020 - 13:00 UTC

METAR LZMC 301300Z 22004KT 9999 FEW029 BKN060 04/M01
Q1026=
METAR LZPW 301300Z 18002KT 9999 FEW010 BKN047 01/M03
Q1025=

 

 

skok na menu ↑


skok na začiatok stránky ↑